createdAt,value
2022-09-15T00:01:56.003Z,21.33
2022-09-15T00:04:22.788Z,21.36
2022-09-15T00:06:49.583Z,21.59
2022-09-15T00:09:16.347Z,21.56
2022-09-15T00:11:43.093Z,21.68
2022-09-15T00:14:09.883Z,21.88
2022-09-15T00:16:36.656Z,21.94
2022-09-15T00:19:03.741Z,21.99
2022-09-15T00:21:30.893Z,22.04
2022-09-15T00:23:57.702Z,22.11
2022-09-15T00:26:24.546Z,19.51
2022-09-15T00:28:51.481Z,17.94
2022-09-15T00:31:18.378Z,17.79
2022-09-15T00:33:45.159Z,19.37
2022-09-15T00:36:11.961Z,20.07
2022-09-15T00:38:38.700Z,20.70
2022-09-15T00:41:05.454Z,21.09
2022-09-15T00:43:32.221Z,21.35
2022-09-15T00:45:59.145Z,21.30
2022-09-15T00:48:25.929Z,21.50
2022-09-15T00:50:52.782Z,21.62
2022-09-15T00:53:19.533Z,21.60
2022-09-15T00:55:47.344Z,21.77
2022-09-15T00:58:14.125Z,21.84
2022-09-15T01:00:40.868Z,21.93
2022-09-15T01:03:07.616Z,22.00
2022-09-15T01:05:34.595Z,22.21
2022-09-15T01:08:01.585Z,21.04
2022-09-15T01:10:28.469Z,18.47
2022-09-15T01:12:55.465Z,17.38
2022-09-15T01:15:22.260Z,18.92
2022-09-15T01:17:49.009Z,19.80
2022-09-15T01:20:15.964Z,20.29
2022-09-15T01:22:42.735Z,20.82
2022-09-15T01:25:09.559Z,21.25
2022-09-15T01:27:42.571Z,21.36
2022-09-15T01:30:09.736Z,21.55
2022-09-15T01:32:55.206Z,21.46
2022-09-15T01:35:22.053Z,21.64
2022-09-15T01:37:48.802Z,21.82
2022-09-15T01:40:15.883Z,21.91
2022-09-15T01:42:42.640Z,21.90
2022-09-15T01:45:09.405Z,22.11
2022-09-15T01:47:36.195Z,21.93
2022-09-15T01:50:02.944Z,19.06
2022-09-15T01:52:29.694Z,17.48
2022-09-15T01:54:56.460Z,18.15
2022-09-15T01:57:23.201Z,19.28
2022-09-15T01:59:49.938Z,20.06
2022-09-15T02:02:16.812Z,20.77
2022-09-15T02:04:46.292Z,21.03
2022-09-15T02:07:13.045Z,21.13
2022-09-15T02:09:39.810Z,21.42
2022-09-15T02:12:07.667Z,21.50
2022-09-15T02:14:36.693Z,21.54
2022-09-15T02:17:03.592Z,21.64
2022-09-15T02:19:31.150Z,21.65
2022-09-15T02:21:57.912Z,21.87
2022-09-15T02:24:24.901Z,21.91
2022-09-15T02:26:51.648Z,21.95
2022-09-15T02:29:18.499Z,22.12
2022-09-15T02:31:45.416Z,21.77
2022-09-15T02:34:12.370Z,18.88
2022-09-15T02:36:39.137Z,17.36
2022-09-15T02:39:05.910Z,18.46
2022-09-15T02:41:32.664Z,19.25
2022-09-15T02:43:59.409Z,20.10
2022-09-15T02:46:26.177Z,20.64
2022-09-15T02:48:53.505Z,21.17
2022-09-15T02:51:20.249Z,21.31
2022-09-15T02:53:47.086Z,21.39
2022-09-15T02:56:14.961Z,21.45
2022-09-15T02:58:41.714Z,21.42
2022-09-15T03:01:08.591Z,21.60
2022-09-15T03:03:37.854Z,21.73
2022-09-15T03:06:19.733Z,21.80
2022-09-15T03:08:46.505Z,21.90
2022-09-15T03:11:13.260Z,21.97
2022-09-15T03:13:40.044Z,22.07
2022-09-15T03:16:06.816Z,21.98
2022-09-15T03:18:33.624Z,19.67
2022-09-15T03:21:01.345Z,18.08
2022-09-15T03:23:28.545Z,18.18
2022-09-15T03:25:55.324Z,19.51
2022-09-15T03:28:22.107Z,20.11
2022-09-15T03:30:48.846Z,20.64
2022-09-15T03:33:15.582Z,20.83
2022-09-15T03:35:42.364Z,21.21
2022-09-15T03:38:09.118Z,21.33
2022-09-15T03:40:37.646Z,21.47
2022-09-15T03:43:04.465Z,21.64
2022-09-15T03:45:31.254Z,21.82
2022-09-15T03:47:58.120Z,21.72
2022-09-15T03:50:24.893Z,21.84
2022-09-15T03:52:54.545Z,21.85
2022-09-15T03:55:24.906Z,22.11
2022-09-15T03:57:52.500Z,22.07
2022-09-15T04:00:19.242Z,20.54
2022-09-15T04:02:45.993Z,18.34
2022-09-15T04:05:13.323Z,17.39
2022-09-15T04:07:40.085Z,19.00
2022-09-15T04:10:06.849Z,19.87
2022-09-15T04:12:34.349Z,20.55
2022-09-15T04:15:01.229Z,21.04
2022-09-15T04:17:28.276Z,21.31
2022-09-15T04:19:55.358Z,21.44
2022-09-15T04:22:22.183Z,21.38
2022-09-15T04:24:48.975Z,21.60
2022-09-15T04:27:15.780Z,21.68
2022-09-15T04:29:42.689Z,21.77
2022-09-15T04:32:09.452Z,21.83
2022-09-15T04:34:41.206Z,21.96
2022-09-15T04:37:08.311Z,21.92
2022-09-15T04:39:35.057Z,21.93
2022-09-15T04:42:05.247Z,21.52
2022-09-15T04:44:32.430Z,18.64
2022-09-15T04:46:59.279Z,17.44
2022-09-15T04:49:26.135Z,18.76
2022-09-15T04:51:53.678Z,19.71
2022-09-15T04:54:20.422Z,20.28
2022-09-15T04:56:47.391Z,20.89
2022-09-15T04:59:14.137Z,21.21
2022-09-15T05:01:41.041Z,21.38
2022-09-15T05:04:07.882Z,21.43
2022-09-15T05:06:34.875Z,21.47
2022-09-15T05:09:04.391Z,21.54
2022-09-15T05:11:33.250Z,21.65
2022-09-15T05:14:00.001Z,21.65
2022-09-15T05:16:26.813Z,21.82
2022-09-15T05:18:53.785Z,21.91
2022-09-15T05:21:20.597Z,21.93
2022-09-15T05:23:47.845Z,21.16
2022-09-15T05:26:14.622Z,18.60
2022-09-15T05:28:41.390Z,17.49
2022-09-15T05:31:08.338Z,18.74
2022-09-15T05:33:35.978Z,19.64
2022-09-15T05:36:02.725Z,20.31
2022-09-15T05:38:29.468Z,20.86
2022-09-15T05:40:56.221Z,21.15
2022-09-15T05:43:23.127Z,21.26
2022-09-15T05:45:49.959Z,21.38
2022-09-15T05:48:16.734Z,21.57
2022-09-15T05:50:43.477Z,21.56
2022-09-15T05:53:10.223Z,21.58
2022-09-15T05:55:37.246Z,21.75
2022-09-15T05:58:04.125Z,21.81
2022-09-15T06:00:30.989Z,21.82
2022-09-15T06:02:57.911Z,22.12
2022-09-15T06:05:24.704Z,22.07
2022-09-15T06:07:51.453Z,19.20
2022-09-15T06:10:18.411Z,17.61
2022-09-15T06:12:45.201Z,18.03
2022-09-15T06:15:12.470Z,19.29
2022-09-15T06:17:39.264Z,20.01
2022-09-15T06:20:07.038Z,20.67
2022-09-15T06:22:33.826Z,20.82
2022-09-15T06:25:00.601Z,21.09
2022-09-15T06:27:27.438Z,21.38
2022-09-15T06:29:54.216Z,21.47
2022-09-15T06:32:21.050Z,21.47
2022-09-15T06:34:47.822Z,21.70
2022-09-15T06:37:14.567Z,21.67
2022-09-15T06:39:41.385Z,21.74
2022-09-15T06:42:09.537Z,21.79
2022-09-15T06:44:38.264Z,21.91
2022-09-15T06:47:05.241Z,21.94
2022-09-15T06:49:31.993Z,22.15
2022-09-15T06:51:58.754Z,19.69
2022-09-15T06:54:25.557Z,18.11
2022-09-15T06:56:52.532Z,18.41
2022-09-15T06:59:19.320Z,19.82
2022-09-15T07:01:46.351Z,20.65
2022-09-15T07:04:13.214Z,21.12
2022-09-15T07:06:40.205Z,21.22
2022-09-15T07:09:07.131Z,21.27
2022-09-15T07:11:33.956Z,21.54
2022-09-15T07:14:00.740Z,21.66
2022-09-15T07:16:27.622Z,21.72
2022-09-15T07:18:54.425Z,21.83
2022-09-15T07:21:21.503Z,21.88
2022-09-15T07:23:48.278Z,21.91
2022-09-15T07:26:15.024Z,22.00
2022-09-15T07:28:45.600Z,21.00
2022-09-15T07:31:12.434Z,18.80
2022-09-15T07:33:39.237Z,18.25
2022-09-15T07:36:06.681Z,19.87
2022-09-15T07:38:33.449Z,20.77
2022-09-15T07:41:00.729Z,21.25
2022-09-15T07:43:27.528Z,21.44
2022-09-15T07:45:54.349Z,21.53
2022-09-15T07:48:25.719Z,21.59
2022-09-15T07:50:53.205Z,21.73
2022-09-15T07:53:20.000Z,21.74
2022-09-15T07:55:46.987Z,21.83
2022-09-15T07:58:13.759Z,22.08
2022-09-15T08:00:40.707Z,21.31
2022-09-15T08:03:07.506Z,18.77
2022-09-15T08:05:38.677Z,18.23
2022-09-15T08:08:07.149Z,19.60
2022-09-15T08:10:33.911Z,20.60
2022-09-15T08:13:00.659Z,21.03
2022-09-15T08:15:27.423Z,21.33
2022-09-15T08:17:55.612Z,21.49
2022-09-15T08:20:22.374Z,21.69
2022-09-15T08:22:49.133Z,21.53
2022-09-15T08:25:15.960Z,21.87
2022-09-15T08:27:43.041Z,21.91
2022-09-15T08:30:10.044Z,21.84
2022-09-15T08:32:36.862Z,21.98
2022-09-15T08:35:03.673Z,22.02
2022-09-15T08:37:31.065Z,19.49
2022-09-15T08:39:57.866Z,18.56
2022-09-15T08:42:26.764Z,19.20
2022-09-15T08:44:55.344Z,20.52
2022-09-15T08:47:22.369Z,21.07
2022-09-15T08:49:51.971Z,21.36
2022-09-15T08:52:19.356Z,21.53
2022-09-15T08:54:46.113Z,21.87
2022-09-15T08:57:12.855Z,21.67
2022-09-15T08:59:40.001Z,21.92
2022-09-15T09:02:06.837Z,21.86
2022-09-15T09:04:33.719Z,21.95
2022-09-15T09:07:00.500Z,22.10
2022-09-15T09:09:27.426Z,21.92
2022-09-15T09:11:54.207Z,19.03
2022-09-15T09:14:20.990Z,18.31
2022-09-15T09:16:47.747Z,19.40
2022-09-15T09:19:14.553Z,20.49
2022-09-15T09:21:41.314Z,21.03
2022-09-15T09:24:08.085Z,21.25
2022-09-15T09:26:35.048Z,21.32
2022-09-15T09:29:01.861Z,21.56
2022-09-15T09:31:28.709Z,21.58
2022-09-15T09:33:55.551Z,21.84
2022-09-15T09:36:22.438Z,21.93
2022-09-15T09:38:49.215Z,21.98
2022-09-15T09:41:15.994Z,22.17
2022-09-15T09:43:42.782Z,21.80
2022-09-15T09:46:09.633Z,19.15
2022-09-15T09:48:36.465Z,18.58
2022-09-15T09:51:03.261Z,19.58
2022-09-15T09:53:31.032Z,20.74
2022-09-15T09:55:57.789Z,21.30
2022-09-15T09:58:24.593Z,21.68
2022-09-15T10:00:51.505Z,22.24
2022-09-15T10:03:18.349Z,22.02
2022-09-15T10:05:45.233Z,21.88
2022-09-15T10:08:12.042Z,21.97
2022-09-15T10:10:39.397Z,19.59
2022-09-15T10:13:06.148Z,18.59
2022-09-15T10:15:33.911Z,18.87
2022-09-15T10:18:01.228Z,20.46
2022-09-15T10:20:32.223Z,21.08
2022-09-15T10:22:58.961Z,21.23
2022-09-15T10:25:39.440Z,21.51
2022-09-15T10:28:11.606Z,21.71
2022-09-15T10:30:38.353Z,22.02
2022-09-15T10:33:05.101Z,22.04
2022-09-15T10:35:31.891Z,22.09
2022-09-15T10:37:58.780Z,22.30
2022-09-15T10:40:25.569Z,19.37
2022-09-15T10:42:52.384Z,18.67
2022-09-15T10:45:19.134Z,19.14
2022-09-15T10:47:45.917Z,20.47
2022-09-15T10:50:12.730Z,20.96
2022-09-15T10:52:39.476Z,21.28
2022-09-15T10:55:06.269Z,21.57
2022-09-15T10:57:33.039Z,21.98
2022-09-15T10:59:59.791Z,21.88
2022-09-15T11:02:26.633Z,21.95
2022-09-15T11:04:53.537Z,22.00
2022-09-15T11:07:20.351Z,22.09
2022-09-15T11:09:47.216Z,19.22
2022-09-15T11:12:14.017Z,18.54
2022-09-15T11:14:40.862Z,19.12
2022-09-15T11:17:07.695Z,20.57
2022-09-15T11:19:34.456Z,20.92
2022-09-15T11:22:01.223Z,21.29
2022-09-15T11:24:28.009Z,21.58
2022-09-15T11:26:54.774Z,21.83
2022-09-15T11:29:21.528Z,21.86
2022-09-15T11:31:48.387Z,22.16
2022-09-15T11:34:15.289Z,22.20
2022-09-15T11:36:42.037Z,22.08
2022-09-15T11:39:08.912Z,19.72
2022-09-15T11:41:35.689Z,18.58
2022-09-15T11:44:02.466Z,18.91
2022-09-15T11:46:29.295Z,20.29
2022-09-15T11:48:56.195Z,20.87
2022-09-15T11:51:22.989Z,21.08
2022-09-15T11:53:50.807Z,21.42
2022-09-15T11:56:17.598Z,21.57
2022-09-15T11:58:44.541Z,21.76
2022-09-15T12:01:11.301Z,21.96
2022-09-15T12:03:38.081Z,22.16
2022-09-15T12:06:04.825Z,21.42
2022-09-15T12:08:32.321Z,18.88
2022-09-15T12:10:59.069Z,18.36
2022-09-15T12:13:25.943Z,19.69
2022-09-15T12:15:53.465Z,20.72
2022-09-15T12:18:37.837Z,21.30
2022-09-15T12:21:06.852Z,21.43
2022-09-15T12:23:34.501Z,21.67
2022-09-15T12:26:01.253Z,21.78
2022-09-15T12:28:28.109Z,21.80
2022-09-15T12:30:55.000Z,21.98
2022-09-15T12:33:21.752Z,22.24
2022-09-15T12:35:48.512Z,19.77
2022-09-15T12:38:15.360Z,18.52
2022-09-15T12:40:42.199Z,19.01
2022-09-15T12:43:08.997Z,20.40
2022-09-15T12:45:38.882Z,21.13
2022-09-15T12:48:05.885Z,21.35
2022-09-15T12:50:32.878Z,21.61
2022-09-15T12:52:59.703Z,21.77
2022-09-15T12:55:27.125Z,21.64
2022-09-15T12:57:53.921Z,21.86
2022-09-15T13:00:20.700Z,21.95
2022-09-15T13:02:47.595Z,22.17
2022-09-15T13:05:14.433Z,20.27
2022-09-15T13:07:41.189Z,18.79
2022-09-15T13:10:07.933Z,18.81
2022-09-15T13:12:34.744Z,20.44
2022-09-15T13:15:01.503Z,21.01
2022-09-15T13:17:29.365Z,21.31
2022-09-15T13:19:56.115Z,21.68
2022-09-15T13:22:27.330Z,21.72
2022-09-15T13:24:57.776Z,21.74
2022-09-15T13:27:28.474Z,21.91
2022-09-15T13:29:55.229Z,21.95
2022-09-15T13:32:21.974Z,21.34
2022-09-15T13:35:13.162Z,18.88
2022-09-15T13:40:25.250Z,20.07
2022-09-15T13:42:52.144Z,20.82
2022-09-15T13:45:19.004Z,21.15
2022-09-15T13:47:45.774Z,21.44
2022-09-15T13:50:13.109Z,21.76
2022-09-15T13:52:39.841Z,21.81
2022-09-15T13:55:06.630Z,21.87
2022-09-15T14:00:23.299Z,21.86
2022-09-15T14:02:50.121Z,19.20
2022-09-15T14:05:16.892Z,18.61
2022-09-15T14:07:43.703Z,19.41
2022-09-15T14:10:10.437Z,20.67
2022-09-15T14:12:37.184Z,21.05
2022-09-15T14:15:05.457Z,21.43
2022-09-15T14:17:34.115Z,21.67
2022-09-15T14:20:01.028Z,21.88
2022-09-15T14:22:27.987Z,21.90
2022-09-15T14:24:54.761Z,22.06
2022-09-15T14:27:22.101Z,22.11
2022-09-15T14:29:50.192Z,21.97
2022-09-15T14:32:16.982Z,20.92
2022-09-15T14:34:43.757Z,18.82
2022-09-15T14:37:10.573Z,18.66
2022-09-15T14:39:37.897Z,20.17
2022-09-15T14:42:04.803Z,20.91
2022-09-15T14:47:18.325Z,21.65
2022-09-15T14:49:45.112Z,21.80
2022-09-15T14:52:11.856Z,21.89
2022-09-15T14:54:38.605Z,21.98
2022-09-15T14:57:05.353Z,22.12
2022-09-15T14:59:32.461Z,20.16
2022-09-15T15:01:59.269Z,18.60
2022-09-15T15:04:26.112Z,18.67
2022-09-15T15:06:52.862Z,20.32
2022-09-15T15:09:20.973Z,20.98
2022-09-15T15:11:48.108Z,21.31
2022-09-15T15:14:15.701Z,21.60
2022-09-15T15:16:42.518Z,21.69
2022-09-15T15:19:09.486Z,21.88
2022-09-15T15:21:36.281Z,21.96
2022-09-15T15:24:03.027Z,21.98
2022-09-15T15:26:29.792Z,22.17
2022-09-15T15:28:56.720Z,19.54
2022-09-15T15:31:24.173Z,18.50
2022-09-15T15:33:50.993Z,19.42
2022-09-15T15:36:17.844Z,20.62
2022-09-15T15:38:47.425Z,21.20
2022-09-15T15:41:14.762Z,21.33
2022-09-15T15:43:41.748Z,21.93
2022-09-15T15:46:08.670Z,21.83
2022-09-15T15:48:37.953Z,21.83
2022-09-15T15:51:05.156Z,22.03
2022-09-15T15:53:31.953Z,22.18
2022-09-15T15:56:00.115Z,22.05
2022-09-15T15:58:26.900Z,20.09
2022-09-15T16:00:53.814Z,18.83
2022-09-15T16:03:20.712Z,18.91
2022-09-15T16:05:47.461Z,20.45
2022-09-15T16:08:14.331Z,21.14
2022-09-15T16:10:41.113Z,21.22
2022-09-15T16:13:08.242Z,21.84
2022-09-15T16:15:35.181Z,21.82
2022-09-15T16:18:01.976Z,21.84
2022-09-15T16:20:29.102Z,22.04
2022-09-15T16:22:55.972Z,22.21
2022-09-15T16:25:23.157Z,19.89
2022-09-15T16:27:49.938Z,18.68
2022-09-15T16:30:16.685Z,18.81
2022-09-15T16:32:43.451Z,20.41
2022-09-15T16:35:10.342Z,20.90
2022-09-15T16:37:37.082Z,21.20
2022-09-15T16:40:03.905Z,21.53
2022-09-15T16:42:30.664Z,21.74
2022-09-15T16:44:57.540Z,21.85
2022-09-15T16:47:24.374Z,22.06
2022-09-15T16:49:52.635Z,22.17
2022-09-15T16:52:19.957Z,22.16
2022-09-15T16:54:46.705Z,21.19
2022-09-15T16:57:13.468Z,18.87
2022-09-15T16:59:40.206Z,18.57
2022-09-15T17:02:07.011Z,19.76
2022-09-15T17:04:33.793Z,20.75
2022-09-15T17:07:00.544Z,21.24
2022-09-15T17:09:27.312Z,21.45
2022-09-15T17:11:54.085Z,21.68
2022-09-15T17:14:20.888Z,21.65
2022-09-15T17:16:52.578Z,21.86
2022-09-15T17:19:19.328Z,22.02
2022-09-15T17:21:46.103Z,22.01
2022-09-15T17:24:12.931Z,20.68
2022-09-15T17:26:39.696Z,18.75
2022-09-15T17:29:06.569Z,18.35
2022-09-15T17:31:33.469Z,19.87
2022-09-15T17:34:00.769Z,20.78
2022-09-15T17:36:27.596Z,21.16
2022-09-15T17:38:54.363Z,21.42
2022-09-15T17:41:22.298Z,21.56
2022-09-15T17:43:49.360Z,21.92
2022-09-15T17:46:16.211Z,21.92
2022-09-15T17:48:43.040Z,21.99
2022-09-15T17:51:09.851Z,22.01
2022-09-15T17:53:37.025Z,21.76
2022-09-15T17:56:03.782Z,19.11
2022-09-15T17:58:31.739Z,18.43
2022-09-15T18:00:58.555Z,19.63
2022-09-15T18:03:27.509Z,20.71
2022-09-15T18:05:54.456Z,21.08
2022-09-15T18:08:21.274Z,21.34
2022-09-15T18:10:48.025Z,21.66
2022-09-15T18:13:15.133Z,21.75
2022-09-15T18:15:42.806Z,21.94
2022-09-15T18:18:09.828Z,21.87
2022-09-15T18:20:36.919Z,21.98
2022-09-15T18:23:03.709Z,22.14
2022-09-15T18:25:30.826Z,19.80
2022-09-15T18:27:57.626Z,18.60
2022-09-15T18:30:24.438Z,18.77
2022-09-15T18:32:51.433Z,20.10
2022-09-15T18:35:18.717Z,20.86
2022-09-15T18:37:45.623Z,21.47
2022-09-15T18:40:12.448Z,21.49
2022-09-15T18:42:39.223Z,21.82
2022-09-15T18:45:06.014Z,21.77
2022-09-15T18:47:32.769Z,21.97
2022-09-15T18:50:00.664Z,21.98
2022-09-15T18:52:27.506Z,22.15
2022-09-15T18:54:54.286Z,22.24
2022-09-15T18:57:22.228Z,19.41
2022-09-15T18:59:48.998Z,18.15
2022-09-15T19:02:16.058Z,18.45
2022-09-15T19:04:42.910Z,19.58
2022-09-15T19:07:09.682Z,20.28
2022-09-15T19:09:36.437Z,20.89
2022-09-15T19:12:03.173Z,21.36
2022-09-15T19:14:29.927Z,21.42
2022-09-15T19:16:58.316Z,21.56
2022-09-15T19:19:25.277Z,21.67
2022-09-15T19:21:52.055Z,21.91
2022-09-15T19:24:18.801Z,21.92
2022-09-15T19:26:46.733Z,22.05
2022-09-15T19:29:13.848Z,22.10
2022-09-15T19:31:42.191Z,20.90
2022-09-15T19:34:09.147Z,18.77
2022-09-15T19:36:35.942Z,18.06
2022-09-15T19:39:03.302Z,19.45
2022-09-15T19:41:30.040Z,20.37
2022-09-15T19:43:57.461Z,20.90
2022-09-15T19:46:24.276Z,21.15
2022-09-15T19:48:51.204Z,21.31
2022-09-15T19:51:18.148Z,21.58
2022-09-15T19:53:44.895Z,21.96
2022-09-15T19:56:11.642Z,22.00
2022-09-15T19:58:38.483Z,21.88
2022-09-15T20:01:05.460Z,22.11
2022-09-15T20:03:32.264Z,22.16
2022-09-15T20:05:59.036Z,22.17
2022-09-15T20:08:25.874Z,19.32
2022-09-15T20:10:52.623Z,18.36
2022-09-15T20:13:19.410Z,18.35
2022-09-15T20:15:46.159Z,19.42
2022-09-15T20:18:13.314Z,20.24
2022-09-15T20:20:40.289Z,20.79
2022-09-15T20:23:07.081Z,21.28
2022-09-15T20:25:33.820Z,21.40
2022-09-15T20:28:00.585Z,21.64
2022-09-15T20:30:27.376Z,21.62
2022-09-15T20:32:54.264Z,21.83
2022-09-15T20:35:21.033Z,21.99
2022-09-15T20:37:49.378Z,22.07
2022-09-15T20:40:16.225Z,22.04
2022-09-15T20:42:43.044Z,22.25
2022-09-15T20:45:10.229Z,20.65
2022-09-15T20:47:37.049Z,18.65
2022-09-15T20:50:03.803Z,17.93
2022-09-15T20:52:35.890Z,19.25
2022-09-15T20:55:04.945Z,20.09
2022-09-15T20:57:31.697Z,20.71
2022-09-15T20:59:58.468Z,21.04
2022-09-15T21:02:25.289Z,21.32
2022-09-15T21:04:52.070Z,21.61
2022-09-15T21:07:18.814Z,21.72
2022-09-15T21:09:45.580Z,21.64
2022-09-15T21:12:12.335Z,21.91
2022-09-15T21:14:39.106Z,22.06
2022-09-15T21:17:05.888Z,22.13
2022-09-15T21:19:32.668Z,22.29
2022-09-15T21:21:59.601Z,19.95
2022-09-15T21:24:26.554Z,18.25
2022-09-15T21:27:11.915Z,17.74
2022-09-15T21:29:38.709Z,19.32
2022-09-15T21:32:05.501Z,20.03
2022-09-15T21:34:32.267Z,20.65
2022-09-15T21:36:59.025Z,21.14
2022-09-15T21:39:25.781Z,21.33
2022-09-15T21:41:52.539Z,21.47
2022-09-15T21:44:19.442Z,21.54
2022-09-15T21:46:47.151Z,21.95
2022-09-15T21:49:13.956Z,21.89
2022-09-15T21:51:40.757Z,22.02
2022-09-15T21:54:07.509Z,22.08
2022-09-15T21:56:34.255Z,22.04
2022-09-15T21:59:01.022Z,20.42
2022-09-15T22:01:27.911Z,18.25
2022-09-15T22:03:54.904Z,17.21
2022-09-15T22:06:21.690Z,18.73
2022-09-15T22:08:48.485Z,19.68
2022-09-15T22:11:15.242Z,20.36
2022-09-15T22:13:42.079Z,20.76
2022-09-15T22:16:08.898Z,21.18
2022-09-15T22:18:35.672Z,21.36
2022-09-15T22:21:02.463Z,21.38
2022-09-15T22:23:29.266Z,21.57
2022-09-15T22:25:56.014Z,21.77
2022-09-15T22:28:22.839Z,21.87
2022-09-15T22:30:49.591Z,21.91
2022-09-15T22:33:16.360Z,22.08
2022-09-15T22:35:43.137Z,22.05
2022-09-15T22:38:10.095Z,22.02
2022-09-15T22:40:36.945Z,20.86
2022-09-15T22:43:03.861Z,18.45
2022-09-15T22:45:30.706Z,17.29
2022-09-15T22:47:57.483Z,18.62
2022-09-15T22:50:24.242Z,19.70
2022-09-15T22:52:51.813Z,20.33
2022-09-15T22:55:18.967Z,20.88
2022-09-15T22:57:45.745Z,21.06
2022-09-15T23:00:12.567Z,21.20
2022-09-15T23:02:39.312Z,21.38
2022-09-15T23:05:06.446Z,21.56
2022-09-15T23:07:34.442Z,21.80
2022-09-15T23:10:01.539Z,21.76
2022-09-15T23:12:28.383Z,21.96
2022-09-15T23:14:55.157Z,22.05
2022-09-15T23:17:22.561Z,22.15
2022-09-15T23:19:49.389Z,22.01
2022-09-15T23:22:16.151Z,20.17
2022-09-15T23:24:42.915Z,18.35
2022-09-15T23:27:09.858Z,17.39
2022-09-15T23:29:36.631Z,18.84
2022-09-15T23:32:03.373Z,19.90
2022-09-15T23:34:30.181Z,20.71
2022-09-15T23:36:57.068Z,20.93
2022-09-15T23:39:23.812Z,21.10
2022-09-15T23:41:50.565Z,21.43
2022-09-15T23:44:17.321Z,21.73
2022-09-15T23:46:44.110Z,21.78
2022-09-15T23:49:15.471Z,21.73
2022-09-15T23:51:44.770Z,21.90
2022-09-15T23:54:11.529Z,21.98
2022-09-15T23:56:38.413Z,21.89
2022-09-15T23:59:05.251Z,22.04
